createdAt,value
2022-11-24T00:04:40.363Z,85.06
2022-11-24T00:09:42.134Z,85.00
2022-11-24T00:14:44.220Z,85.23
2022-11-24T00:19:46.046Z,84.56
2022-11-24T00:24:47.849Z,84.94
2022-11-24T00:29:49.603Z,84.22
2022-11-24T00:34:51.366Z,84.69
2022-11-24T00:39:53.153Z,84.26
2022-11-24T00:44:54.915Z,84.75
2022-11-24T00:49:56.770Z,84.55
2022-11-24T00:54:58.540Z,84.04
2022-11-24T01:00:00.361Z,84.36
2022-11-24T01:05:03.498Z,84.12
2022-11-24T01:10:05.837Z,84.55
2022-11-24T01:15:08.026Z,84.58
2022-11-24T01:20:10.363Z,84.48
2022-11-24T01:25:12.355Z,84.45
2022-11-24T01:30:14.151Z,84.89
2022-11-24T01:35:15.937Z,84.70
2022-11-24T01:40:17.735Z,84.95
2022-11-24T01:45:36.251Z,85.02
2022-11-24T01:50:38.101Z,84.22
2022-11-24T01:55:41.393Z,84.49
2022-11-24T02:00:45.560Z,84.75
2022-11-24T02:06:05.005Z,84.72
2022-11-24T02:11:06.826Z,84.47
2022-11-24T02:16:11.860Z,84.54
2022-11-24T02:21:16.238Z,83.95
2022-11-24T02:26:36.314Z,84.54
2022-11-24T02:31:41.666Z,84.30
2022-11-24T02:36:43.526Z,84.29
2022-11-24T02:41:54.305Z,84.27
2022-11-24T02:47:03.991Z,83.97
2022-11-24T02:52:07.033Z,84.77
2022-11-24T02:57:09.336Z,84.43
2022-11-24T03:02:11.102Z,84.33
2022-11-24T03:07:12.928Z,84.62
2022-11-24T03:12:15.011Z,84.84
2022-11-24T03:17:16.768Z,84.33
2022-11-24T03:22:18.551Z,84.33
2022-11-24T03:27:21.099Z,84.44
2022-11-24T03:32:23.017Z,85.14
2022-11-24T03:37:24.824Z,85.31
2022-11-24T03:42:26.626Z,84.75
2022-11-24T03:47:28.407Z,84.59
2022-11-24T03:52:30.225Z,84.45
2022-11-24T03:57:31.991Z,85.08
2022-11-24T04:02:33.812Z,84.93
2022-11-24T04:07:35.737Z,84.98
2022-11-24T04:12:46.379Z,84.82
2022-11-24T04:17:49.747Z,85.16
2022-11-24T04:22:52.247Z,85.06
2022-11-24T04:27:56.062Z,84.98
2022-11-24T04:32:57.851Z,85.24
2022-11-24T04:38:03.061Z,85.20
2022-11-24T04:43:04.836Z,85.10
2022-11-24T04:48:06.708Z,84.93
2022-11-24T04:53:10.353Z,85.38
2022-11-24T04:58:12.412Z,85.29
2022-11-24T05:03:15.350Z,85.03
2022-11-24T05:08:17.066Z,85.46
2022-11-24T05:13:18.758Z,85.22
2022-11-24T05:18:20.422Z,85.32
2022-11-24T05:23:22.222Z,85.36
2022-11-24T05:28:23.958Z,85.34
2022-11-24T05:33:28.251Z,85.67
2022-11-24T05:38:30.892Z,86.11
2022-11-24T05:43:32.652Z,86.12
2022-11-24T05:48:34.346Z,85.91
2022-11-24T05:53:36.017Z,86.13
2022-11-24T05:58:37.609Z,86.01
2022-11-24T06:03:39.184Z,85.43
2022-11-24T06:08:40.769Z,85.71
2022-11-24T06:13:42.672Z,85.73
2022-11-24T06:18:44.385Z,85.75
2022-11-24T06:23:48.618Z,85.61
2022-11-24T06:28:50.142Z,85.57
2022-11-24T06:33:51.714Z,85.13
2022-11-24T06:38:54.006Z,85.08
2022-11-24T06:43:55.677Z,85.98
2022-11-24T06:48:57.433Z,85.82
2022-11-24T06:53:59.200Z,86.54
2022-11-24T06:59:01.338Z,86.92
2022-11-24T07:04:03.135Z,86.56
2022-11-24T07:09:04.855Z,87.04
2022-11-24T07:14:06.959Z,86.48
2022-11-24T07:19:10.748Z,86.36
2022-11-24T07:24:12.431Z,86.03
2022-11-24T07:29:14.049Z,86.64
2022-11-24T07:34:15.677Z,86.61
2022-11-24T07:39:17.765Z,86.68
2022-11-24T07:44:19.365Z,86.13
2022-11-24T07:49:20.951Z,86.00
2022-11-24T07:54:22.557Z,86.13
2022-11-24T07:59:24.137Z,86.03
2022-11-24T08:04:25.720Z,85.67
2022-11-24T08:09:27.253Z,85.63
2022-11-24T08:14:29.040Z,83.84
2022-11-24T08:19:32.312Z,85.10
2022-11-24T08:24:34.029Z,85.47
2022-11-24T08:29:35.735Z,85.60
2022-11-24T08:34:37.620Z,85.59
2022-11-24T08:39:39.180Z,85.92
2022-11-24T08:44:40.748Z,85.36
2022-11-24T08:49:42.348Z,86.18
2022-11-24T08:54:44.837Z,85.97
2022-11-24T08:59:46.449Z,86.00
2022-11-24T09:04:48.039Z,85.23
2022-11-24T09:09:49.640Z,84.96
2022-11-24T09:14:51.201Z,85.21
2022-11-24T09:25:11.676Z,85.48
2022-11-24T09:30:13.852Z,85.21
2022-11-24T09:35:15.487Z,85.48
2022-11-24T09:40:17.668Z,85.26
2022-11-24T09:46:05.174Z,84.62
2022-11-24T09:51:11.677Z,82.96
2022-11-24T09:56:22.266Z,83.67
2022-11-24T10:01:31.025Z,83.91
2022-11-24T10:07:23.297Z,83.23
2022-11-24T10:12:55.619Z,83.17
2022-11-24T10:18:05.785Z,83.34
2022-11-24T10:23:47.403Z,83.71
2022-11-24T10:28:55.246Z,83.04
2022-11-24T10:34:18.058Z,82.99
2022-11-24T10:40:00.043Z,82.64
2022-11-24T10:45:22.795Z,83.39
2022-11-24T10:50:27.136Z,83.60
2022-11-24T10:55:56.545Z,83.81
2022-11-24T11:01:02.481Z,83.14
2022-11-24T11:06:10.964Z,82.68
2022-11-24T11:11:29.767Z,81.96
2022-11-24T11:16:43.657Z,82.23
2022-11-24T11:21:45.232Z,82.46
2022-11-24T11:26:46.782Z,81.82
2022-11-24T11:37:28.321Z,81.90
2022-11-24T11:43:01.825Z,81.45
2022-11-24T11:48:20.305Z,81.94
2022-11-24T11:53:38.228Z,81.82
2022-11-24T11:59:11.693Z,81.33
2022-11-24T12:04:34.947Z,80.82
2022-11-24T12:09:55.186Z,81.19
2022-11-24T12:15:34.734Z,81.45
2022-11-24T12:20:52.337Z,81.76
2022-11-24T12:26:14.167Z,81.24
2022-11-24T12:31:36.793Z,81.52
2022-11-24T12:36:41.380Z,81.64
2022-11-24T12:42:01.759Z,81.29
2022-11-24T12:47:09.351Z,80.53
2022-11-24T12:52:31.672Z,80.53
2022-11-24T12:57:56.449Z,80.73
2022-11-24T13:03:13.176Z,80.31
2022-11-24T13:08:16.042Z,80.81
2022-11-24T13:13:17.949Z,80.31
2022-11-24T13:18:53.466Z,80.30
2022-11-24T13:23:58.662Z,80.25
2022-11-24T13:29:17.931Z,81.00
2022-11-24T13:34:42.707Z,81.43
2022-11-24T13:39:50.720Z,81.72
2022-11-24T13:44:54.821Z,81.30
2022-11-24T13:49:57.101Z,81.70
2022-11-24T13:54:59.148Z,81.86
2022-11-24T14:00:01.704Z,82.11
2022-11-24T14:05:03.619Z,82.01
2022-11-24T14:10:05.891Z,82.11
2022-11-24T14:15:27.140Z,82.39
2022-11-24T14:20:28.879Z,82.51
2022-11-24T14:25:32.353Z,82.51
2022-11-24T14:30:34.376Z,82.54
2022-11-24T14:35:36.474Z,83.00
2022-11-24T14:40:50.709Z,82.58
2022-11-24T14:45:56.421Z,82.99
2022-11-24T14:51:19.323Z,82.95
2022-11-24T14:56:26.335Z,83.66
2022-11-24T15:01:27.936Z,83.85
2022-11-24T15:06:29.614Z,83.77
2022-11-24T15:11:32.684Z,83.68
2022-11-24T15:16:34.288Z,83.93
2022-11-24T15:21:37.094Z,84.34
2022-11-24T15:26:42.193Z,85.12
2022-11-24T15:31:49.394Z,84.65
2022-11-24T15:36:54.050Z,84.88
2022-11-24T15:41:55.664Z,85.31
2022-11-24T15:46:57.279Z,85.50
2022-11-24T15:51:59.029Z,85.58
2022-11-24T15:57:00.619Z,86.02
2022-11-24T16:02:02.245Z,85.76
2022-11-24T16:07:06.268Z,85.72
2022-11-24T16:12:08.746Z,86.23
2022-11-24T16:17:10.318Z,85.92
2022-11-24T16:22:11.889Z,85.87
2022-11-24T16:27:13.427Z,85.31
2022-11-24T16:32:15.026Z,84.96
2022-11-24T16:37:16.608Z,85.40
2022-11-24T16:42:18.275Z,85.06
2022-11-24T16:47:20.133Z,85.09
2022-11-24T16:52:21.719Z,85.15
2022-11-24T16:57:23.303Z,85.11
2022-11-24T17:02:25.103Z,85.95
2022-11-24T17:07:26.909Z,86.07
2022-11-24T17:12:28.713Z,86.66
2022-11-24T17:17:30.298Z,86.72
2022-11-24T17:22:31.857Z,86.35
2022-11-24T17:27:33.446Z,86.31
2022-11-24T17:32:35.138Z,86.03
2022-11-24T17:37:37.138Z,86.21
2022-11-24T17:42:38.701Z,86.20
2022-11-24T17:47:40.237Z,85.60
2022-11-24T17:52:41.782Z,85.84
2022-11-24T17:57:43.342Z,86.05
2022-11-24T18:02:44.936Z,85.66
2022-11-24T18:07:46.640Z,85.19
2022-11-24T18:12:48.210Z,85.27
2022-11-24T18:17:52.384Z,85.38
2022-11-24T18:23:09.308Z,85.82
2022-11-24T18:28:10.889Z,85.77
2022-11-24T18:33:12.496Z,85.53
2022-11-24T18:38:14.039Z,85.32
2022-11-24T18:43:15.592Z,85.89
2022-11-24T18:48:17.159Z,85.76
2022-11-24T18:53:19.941Z,85.94
2022-11-24T18:58:21.630Z,86.23
2022-11-24T19:03:23.200Z,86.30
2022-11-24T19:08:24.749Z,86.27
2022-11-24T19:13:26.319Z,85.65
2022-11-24T19:18:31.119Z,85.98
2022-11-24T19:23:32.705Z,86.19
2022-11-24T19:28:34.410Z,85.95
2022-11-24T19:33:36.179Z,86.51
2022-11-24T19:38:38.171Z,86.09
2022-11-24T19:43:40.875Z,86.11
2022-11-24T19:48:44.446Z,86.39
2022-11-24T19:53:46.386Z,85.90
2022-11-24T19:58:48.733Z,86.11
2022-11-24T20:04:01.053Z,86.45
2022-11-24T20:09:05.504Z,86.52
2022-11-24T20:14:10.082Z,86.12
2022-11-24T20:19:13.399Z,86.33
2022-11-24T20:24:24.659Z,85.82
2022-11-24T20:29:29.193Z,86.11
2022-11-24T20:34:30.803Z,85.99
2022-11-24T20:39:32.370Z,86.43
2022-11-24T20:44:34.231Z,85.91
2022-11-24T20:49:36.026Z,86.11
2022-11-24T20:54:38.382Z,86.23
2022-11-24T20:59:39.994Z,86.31
2022-11-24T21:04:41.735Z,86.15
2022-11-24T21:09:43.349Z,86.49
2022-11-24T21:14:44.881Z,86.62
2022-11-24T21:19:46.677Z,86.34
2022-11-24T21:24:48.225Z,86.16
2022-11-24T21:29:49.791Z,86.51
2022-11-24T21:34:51.334Z,86.84
2022-11-24T21:39:53.074Z,86.87
2022-11-24T21:44:54.699Z,87.17
2022-11-24T21:49:56.329Z,87.42
2022-11-24T21:54:57.895Z,87.47
2022-11-24T21:59:59.434Z,87.48
2022-11-24T22:05:01.101Z,87.90
2022-11-24T22:10:02.735Z,87.38
2022-11-24T22:15:04.559Z,87.80
2022-11-24T22:20:06.923Z,87.73
2022-11-24T22:25:08.640Z,88.17
2022-11-24T22:30:10.655Z,88.02
2022-11-24T22:35:12.199Z,88.03
2022-11-24T22:40:13.844Z,87.63
2022-11-24T22:45:15.410Z,87.29
2022-11-24T22:50:17.020Z,88.00
2022-11-24T22:55:18.570Z,87.61
2022-11-24T23:00:20.428Z,87.70
2022-11-24T23:05:22.026Z,87.64
2022-11-24T23:10:23.625Z,87.88
2022-11-24T23:15:25.254Z,87.39
2022-11-24T23:20:26.912Z,87.52
2022-11-24T23:25:28.548Z,88.03
2022-11-24T23:30:30.159Z,87.75
2022-11-24T23:35:33.047Z,87.63
2022-11-24T23:40:34.680Z,87.90
2022-11-24T23:45:36.314Z,87.64
2022-11-24T23:50:37.886Z,87.87
2022-11-24T23:55:39.712Z,88.22
